createdAt,value
2023-03-25T00:01:26.134Z,99396.41
2023-03-25T00:03:53.628Z,99398.58
2023-03-25T00:06:20.621Z,99395.17
2023-03-25T00:08:52.083Z,99393.03
2023-03-25T00:11:19.965Z,99391.95
2023-03-25T00:13:48.208Z,99382.48
2023-03-25T00:16:25.678Z,99381.67
2023-03-25T00:18:52.661Z,99382.59
2023-03-25T00:21:19.580Z,99391.62
2023-03-25T00:23:48.027Z,99399.20
2023-03-25T00:26:15.054Z,99398.33
2023-03-25T00:28:42.058Z,99398.91
2023-03-25T00:31:14.416Z,99396.95
2023-03-25T00:33:44.267Z,99389.55
2023-03-25T00:36:13.763Z,99390.95
2023-03-25T00:38:43.218Z,99388.54
2023-03-25T00:41:25.719Z,99386.29
2023-03-25T00:43:56.674Z,99387.41
2023-03-25T00:46:24.423Z,99389.48
2023-03-25T00:48:57.293Z,99386.92
2023-03-25T00:51:28.751Z,99391.13
2023-03-25T00:54:00.272Z,99399.14
2023-03-25T00:59:16.436Z,99390.21
2023-03-25T01:01:46.515Z,99388.15
2023-03-25T01:04:17.098Z,99385.43
2023-03-25T01:06:45.578Z,99391.23
2023-03-25T01:09:21.283Z,99388.88
2023-03-25T01:11:50.617Z,99391.13
2023-03-25T01:14:19.515Z,99387.04
2023-03-25T01:16:51.068Z,99390.09
2023-03-25T01:19:19.420Z,99388.43
2023-03-25T01:21:46.995Z,99387.61
2023-03-25T01:24:16.207Z,99388.08
2023-03-25T01:26:44.669Z,99389.56
2023-03-25T01:29:15.015Z,99395.70
2023-03-25T01:31:42.426Z,99393.98
2023-03-25T01:34:10.937Z,99391.71
2023-03-25T01:36:40.137Z,99389.64
2023-03-25T01:39:08.335Z,99393.52
2023-03-25T01:41:49.142Z,99389.88
2023-03-25T01:44:20.996Z,99393.00
2023-03-25T01:46:53.674Z,99393.90
2023-03-25T01:49:30.377Z,99388.87
2023-03-25T01:52:06.418Z,99388.65
2023-03-25T01:54:33.487Z,99398.11
2023-03-25T01:57:01.484Z,99391.09
2023-03-25T01:59:32.143Z,99392.91
2023-03-25T02:02:02.623Z,99390.25
2023-03-25T02:05:00.188Z,99393.03
2023-03-25T02:07:32.976Z,99394.70
2023-03-25T02:10:04.827Z,99391.69
2023-03-25T02:12:33.120Z,99385.89
2023-03-25T02:15:03.377Z,99393.92
2023-03-25T02:17:43.929Z,99391.48
2023-03-25T02:20:33.689Z,99390.54
2023-03-25T02:23:23.997Z,99396.80
2023-03-25T02:26:10.917Z,99393.41
2023-03-25T02:28:47.395Z,99399.84
2023-03-25T02:31:34.469Z,99395.02
2023-03-25T02:34:04.802Z,99395.98
2023-03-25T02:36:43.988Z,99399.33
2023-03-25T02:39:14.211Z,99404.20
2023-03-25T02:41:56.243Z,99399.38
2023-03-25T02:44:54.833Z,99396.23
2023-03-25T02:47:23.562Z,99391.78
2023-03-25T02:49:56.597Z,99391.00
2023-03-25T02:52:45.085Z,99390.55
2023-03-25T02:55:15.140Z,99387.84
2023-03-25T02:57:45.612Z,99388.27
2023-03-25T03:00:21.059Z,99384.94
2023-03-25T03:03:00.227Z,99386.10
2023-03-25T03:05:31.302Z,99386.85
2023-03-25T03:08:06.076Z,99382.97
2023-03-25T03:11:13.019Z,99385.16
2023-03-25T03:14:18.297Z,99386.83
2023-03-25T03:17:09.738Z,99387.20
2023-03-25T03:19:46.730Z,99386.19
2023-03-25T03:22:40.580Z,99384.23
2023-03-25T03:25:23.472Z,99384.19
2023-03-25T03:28:28.815Z,99386.23
2023-03-25T03:31:06.963Z,99387.68
2023-03-25T03:33:41.226Z,99387.44
2023-03-25T03:36:09.963Z,99392.20
2023-03-25T03:38:46.933Z,99394.83
2023-03-25T03:41:19.659Z,99392.55
2023-03-25T03:43:54.610Z,99391.89
2023-03-25T03:46:42.462Z,99390.30
2023-03-25T03:49:17.399Z,99396.58
2023-03-25T03:51:54.112Z,99394.70
2023-03-25T03:54:31.029Z,99399.83
2023-03-25T03:57:03.030Z,99397.54
2023-03-25T03:59:43.137Z,99396.80
2023-03-25T04:02:24.239Z,99397.92
2023-03-25T04:04:54.894Z,99400.92
2023-03-25T04:07:24.704Z,99404.02
2023-03-25T04:10:04.093Z,99408.40
2023-03-25T04:12:35.664Z,99407.70
2023-03-25T04:15:07.375Z,99411.96
2023-03-25T04:17:36.230Z,99411.38
2023-03-25T04:20:09.269Z,99412.63
2023-03-25T04:22:40.116Z,99402.14
2023-03-25T04:25:08.110Z,99400.01
2023-03-25T04:27:37.878Z,99401.19
2023-03-25T04:30:07.270Z,99404.78
2023-03-25T04:32:35.683Z,99406.05
2023-03-25T04:35:04.888Z,99409.73
2023-03-25T04:37:34.400Z,99402.95
2023-03-25T04:40:01.943Z,99408.96
2023-03-25T04:42:33.089Z,99417.80
2023-03-25T04:45:01.383Z,99416.29
2023-03-25T04:47:31.179Z,99418.04
2023-03-25T04:49:58.884Z,99418.06
2023-03-25T04:52:27.077Z,99420.50
2023-03-25T04:54:56.019Z,99413.52
2023-03-25T04:57:26.140Z,99420.77
2023-03-25T04:59:56.972Z,99420.01
2023-03-25T05:02:24.352Z,99418.85
2023-03-25T05:04:54.322Z,99419.08
2023-03-25T05:07:26.382Z,99420.52
2023-03-25T05:09:53.618Z,99420.15
2023-03-25T05:12:21.508Z,99417.38
2023-03-25T05:14:48.863Z,99414.23
2023-03-25T05:17:16.393Z,99417.02
2023-03-25T05:19:44.589Z,99418.25
2023-03-25T05:22:13.402Z,99417.88
2023-03-25T05:24:45.350Z,99420.65
2023-03-25T05:27:13.029Z,99425.39
2023-03-25T05:29:40.719Z,99427.89
2023-03-25T05:32:08.387Z,99426.96
2023-03-25T05:34:36.159Z,99428.50
2023-03-25T05:37:03.553Z,99425.65
2023-03-25T05:39:32.610Z,99417.41
2023-03-25T05:42:03.023Z,99425.67
2023-03-25T05:44:32.132Z,99421.80
2023-03-25T05:47:02.608Z,99420.11
2023-03-25T05:49:30.811Z,99418.45
2023-03-25T05:52:01.003Z,99419.17
2023-03-25T05:54:30.837Z,99422.34
2023-03-25T05:56:58.999Z,99425.94
2023-03-25T05:59:27.559Z,99426.84
2023-03-25T06:01:55.075Z,99425.23
2023-03-25T06:10:39.713Z,99422.92
2023-03-25T06:13:07.904Z,99422.38
2023-03-25T06:15:39.613Z,99421.09
2023-03-25T06:18:13.459Z,99417.67
2023-03-25T06:20:41.526Z,99414.34
2023-03-25T06:23:12.085Z,99419.30
2023-03-25T06:25:41.216Z,99417.62
2023-03-25T06:28:08.589Z,99422.26
2023-03-25T06:30:38.226Z,99414.34
2023-03-25T06:33:43.310Z,99417.73
2023-03-25T06:36:12.983Z,99417.66
2023-03-25T06:38:41.245Z,99423.70
2023-03-25T06:41:13.200Z,99414.16
2023-03-25T06:43:43.553Z,99418.27
2023-03-25T06:46:44.287Z,99415.36
2023-03-25T06:49:23.902Z,99412.20
2023-03-25T06:51:53.846Z,99412.38
2023-03-25T06:54:26.534Z,99411.66
2023-03-25T06:56:54.050Z,99410.94
2023-03-25T06:59:21.816Z,99413.39
2023-03-25T07:01:49.153Z,99405.56
2023-03-25T07:04:19.093Z,99405.90
2023-03-25T07:06:47.214Z,99406.41
2023-03-25T07:09:14.455Z,99407.73
2023-03-25T07:11:41.884Z,99406.04
2023-03-25T07:14:11.430Z,99407.98
2023-03-25T07:16:38.880Z,99402.77
2023-03-25T07:19:10.397Z,99402.20
2023-03-25T07:21:39.500Z,99403.39
2023-03-25T07:24:07.573Z,99401.94
2023-03-25T07:26:34.895Z,99395.30
2023-03-25T07:29:04.426Z,99404.55
2023-03-25T07:31:32.721Z,99405.17
2023-03-25T07:34:00.345Z,99404.00
2023-03-25T07:36:27.610Z,99393.84
2023-03-25T07:38:56.966Z,99398.21
2023-03-25T07:41:26.234Z,99389.77
2023-03-25T07:44:08.114Z,99391.11
2023-03-25T07:46:37.601Z,99384.64
2023-03-25T07:49:07.694Z,99384.73
2023-03-25T07:51:36.703Z,99385.61
2023-03-25T07:54:05.589Z,99392.31
2023-03-25T07:56:34.200Z,99383.05
2023-03-25T07:59:02.807Z,99378.08
2023-03-25T08:01:30.190Z,99374.33
2023-03-25T08:03:57.934Z,99383.06
2023-03-25T08:06:28.616Z,99371.30
2023-03-25T08:08:55.953Z,99367.54
2023-03-25T08:11:23.361Z,99370.73
2023-03-25T08:13:52.659Z,99371.02
2023-03-25T08:16:20.230Z,99361.61
2023-03-25T08:18:47.828Z,99358.70
2023-03-25T08:21:17.441Z,99371.24
2023-03-25T08:23:45.223Z,99361.73
2023-03-25T08:26:12.632Z,99359.83
2023-03-25T08:28:40.648Z,99367.71
2023-03-25T08:31:10.811Z,99358.30
2023-03-25T08:33:46.338Z,99350.72
2023-03-25T08:36:16.138Z,99345.70
2023-03-25T08:38:45.936Z,99352.88
2023-03-25T08:41:14.008Z,99351.86
2023-03-25T08:43:42.127Z,99350.56
2023-03-25T08:46:10.590Z,99351.58
2023-03-25T08:48:37.918Z,99358.86
2023-03-25T08:51:08.633Z,99353.23
2023-03-25T08:53:36.931Z,99348.62
2023-03-25T08:56:05.995Z,99344.84
2023-03-25T08:58:35.353Z,99343.85
2023-03-25T09:01:03.245Z,99337.07
2023-03-25T09:03:30.542Z,99335.48
2023-03-25T09:06:00.358Z,99330.14
2023-03-25T09:08:27.951Z,99338.66
2023-03-25T09:10:56.358Z,99334.31
2023-03-25T09:13:24.223Z,99336.10
2023-03-25T09:15:53.171Z,99333.49
2023-03-25T09:18:27.992Z,99345.29
2023-03-25T09:21:00.834Z,99336.28
2023-03-25T09:23:28.218Z,99334.41
2023-03-25T09:25:57.091Z,99335.30
2023-03-25T09:28:26.388Z,99336.43
2023-03-25T09:30:55.324Z,99323.58
2023-03-25T09:33:23.888Z,99332.42
2023-03-25T09:35:51.974Z,99327.14
2023-03-25T09:38:20.226Z,99320.25
2023-03-25T09:40:48.772Z,99336.33
2023-03-25T09:43:40.603Z,99319.07
2023-03-25T09:46:07.862Z,99315.30
2023-03-25T09:48:38.893Z,99316.27
2023-03-25T09:51:15.946Z,99313.44
2023-03-25T09:53:57.769Z,99316.52
2023-03-25T09:56:27.739Z,99308.30
2023-03-25T09:59:07.687Z,99300.94
2023-03-25T10:01:40.048Z,99304.16
2023-03-25T10:04:32.274Z,99301.44
2023-03-25T10:07:14.851Z,99290.35
2023-03-25T10:10:12.767Z,99295.58
2023-03-25T10:13:03.136Z,99289.65
2023-03-25T10:15:35.644Z,99291.68
2023-03-25T10:18:19.612Z,99283.20
2023-03-25T10:20:51.068Z,99288.08
2023-03-25T10:24:03.524Z,99286.60
2023-03-25T10:26:37.565Z,99277.34
2023-03-25T10:29:16.263Z,99271.56
2023-03-25T10:31:50.881Z,99269.39
2023-03-25T10:34:19.236Z,99265.38
2023-03-25T10:36:56.560Z,99266.25
2023-03-25T10:39:25.958Z,99261.50
2023-03-25T10:42:01.899Z,99250.48
2023-03-25T10:44:29.582Z,99256.83
2023-03-25T10:47:04.339Z,99247.20
2023-03-25T10:49:33.394Z,99247.48
2023-03-25T10:52:00.869Z,99249.89
2023-03-25T10:54:31.892Z,99238.80
2023-03-25T10:57:00.741Z,99239.48
2023-03-25T10:59:36.058Z,99232.88
2023-03-25T11:02:33.083Z,99231.34
2023-03-25T11:05:03.210Z,99228.58
2023-03-25T11:07:34.419Z,99237.46
2023-03-25T11:10:13.917Z,99234.34
2023-03-25T11:12:47.795Z,99232.69
2023-03-25T11:15:17.254Z,99235.08
2023-03-25T11:17:46.404Z,99227.69
2023-03-25T11:20:19.584Z,99227.20
2023-03-25T11:22:50.589Z,99223.27
2023-03-25T11:25:28.336Z,99219.08
2023-03-25T11:27:57.503Z,99222.46
2023-03-25T11:30:26.949Z,99215.30
2023-03-25T11:33:03.538Z,99211.17
2023-03-25T11:35:42.503Z,99203.43
2023-03-25T11:38:22.898Z,99207.71
2023-03-25T11:40:55.456Z,99205.47
2023-03-25T11:43:23.896Z,99202.91
2023-03-25T11:45:51.928Z,99204.27
2023-03-25T11:48:23.255Z,99193.00
2023-03-25T11:50:55.933Z,99205.47
2023-03-25T11:53:28.465Z,99203.56
2023-03-25T11:55:58.292Z,99206.69
2023-03-25T11:58:30.508Z,99201.40
2023-03-25T12:01:08.001Z,99193.41
2023-03-25T12:03:38.844Z,99193.48
2023-03-25T12:06:15.152Z,99187.48
2023-03-25T12:08:48.715Z,99184.02
2023-03-25T12:11:26.169Z,99182.21
2023-03-25T12:14:24.216Z,99185.55
2023-03-25T12:17:26.183Z,99173.07
2023-03-25T12:19:54.902Z,99187.05
2023-03-25T12:22:45.744Z,99178.95
2023-03-25T12:25:45.135Z,99167.27
2023-03-25T12:28:46.682Z,99163.27
2023-03-25T12:31:26.224Z,99170.34
2023-03-25T12:34:12.262Z,99171.29
2023-03-25T12:36:50.385Z,99163.52
2023-03-25T12:39:43.229Z,99161.73
2023-03-25T12:42:14.153Z,99158.29
2023-03-25T12:45:15.948Z,99160.48
2023-03-25T12:47:48.322Z,99157.23
2023-03-25T12:50:57.350Z,99152.45
2023-03-25T12:53:25.656Z,99145.08
2023-03-25T12:56:19.442Z,99155.55
2023-03-25T12:58:52.772Z,99153.14
2023-03-25T13:01:49.750Z,99152.21
2023-03-25T13:04:28.487Z,99140.02
2023-03-25T13:07:16.798Z,99133.40
2023-03-25T13:16:43.111Z,99138.84
2023-03-25T13:19:22.591Z,99136.27
2023-03-25T13:21:52.287Z,99124.27
2023-03-25T13:24:22.773Z,99113.64
2023-03-25T13:26:50.350Z,99123.03
2023-03-25T13:29:54.515Z,99126.11
2023-03-25T13:32:33.533Z,99124.47
2023-03-25T13:35:03.530Z,99116.41
2023-03-25T13:37:38.233Z,99116.61
2023-03-25T13:40:19.029Z,99116.67
2023-03-25T13:43:16.965Z,99115.27
2023-03-25T13:46:06.536Z,99114.58
2023-03-25T13:48:41.800Z,99103.27
2023-03-25T13:51:08.486Z,99111.18
2023-03-25T13:53:38.339Z,99105.85
2023-03-25T13:56:06.151Z,99107.98
2023-03-25T13:58:51.989Z,99098.17
2023-03-25T14:01:37.894Z,99108.87
2023-03-25T14:04:27.037Z,99103.02
2023-03-25T14:06:59.850Z,99100.27
2023-03-25T14:09:58.628Z,99093.48
2023-03-25T14:12:32.989Z,99088.70
2023-03-25T14:15:03.872Z,99092.98
2023-03-25T14:17:32.934Z,99088.04
2023-03-25T14:20:01.479Z,99084.25
2023-03-25T14:22:32.808Z,99088.11
2023-03-25T14:25:00.971Z,99088.33
2023-03-25T14:27:31.040Z,99092.48
2023-03-25T14:29:58.297Z,99081.76
2023-03-25T14:32:31.605Z,99081.41
2023-03-25T14:35:32.930Z,99091.90
2023-03-25T14:38:06.554Z,99090.88
2023-03-25T14:40:47.414Z,99081.39
2023-03-25T14:43:53.522Z,99083.41
2023-03-25T14:46:21.425Z,99077.71
2023-03-25T14:49:04.509Z,99085.41
2023-03-25T14:51:35.133Z,99079.85
2023-03-25T14:54:02.252Z,99077.33
2023-03-25T14:56:35.380Z,99081.08
2023-03-25T14:59:10.443Z,99077.95
2023-03-25T15:01:37.755Z,99078.66
2023-03-25T15:04:34.005Z,99075.16
2023-03-25T15:07:04.408Z,99072.16
2023-03-25T15:09:30.735Z,99064.48
2023-03-25T15:12:02.094Z,99055.67
2023-03-25T15:14:35.421Z,99057.84
2023-03-25T15:17:05.833Z,99056.05
2023-03-25T15:20:09.435Z,99060.20
2023-03-25T15:22:38.738Z,99054.80
2023-03-25T15:25:18.449Z,99056.84
2023-03-25T15:27:55.881Z,99059.29
2023-03-25T15:30:51.092Z,99058.08
2023-03-25T15:34:00.279Z,99056.60
2023-03-25T15:36:53.450Z,99066.70
2023-03-25T15:39:41.465Z,99067.25
2023-03-25T15:42:14.603Z,99070.34
2023-03-25T15:44:49.483Z,99068.34
2023-03-25T15:47:50.760Z,99063.39
2023-03-25T15:50:41.335Z,99074.23
2023-03-25T15:53:42.936Z,99074.37
2023-03-25T15:56:12.128Z,99076.52
2023-03-25T15:59:08.062Z,99076.52
2023-03-25T16:01:39.058Z,99082.88
2023-03-25T16:04:30.783Z,99087.27
2023-03-25T16:06:57.341Z,99080.85
2023-03-25T16:09:27.361Z,99092.20
2023-03-25T16:12:01.671Z,99087.66
2023-03-25T16:14:32.716Z,99089.27
2023-03-25T16:17:05.986Z,99089.55
2023-03-25T16:19:38.831Z,99083.64
2023-03-25T16:22:32.602Z,99091.29
2023-03-25T16:25:01.956Z,99094.20
2023-03-25T16:27:37.225Z,99086.72
2023-03-25T16:30:37.012Z,99077.48
2023-03-25T16:33:07.650Z,99084.70
2023-03-25T16:35:43.511Z,99084.88
2023-03-25T16:38:16.734Z,99087.13
2023-03-25T16:40:46.418Z,99085.54
2023-03-25T16:43:22.791Z,99094.89
2023-03-25T16:45:51.130Z,99089.09
2023-03-25T16:48:21.677Z,99090.91
2023-03-25T16:50:49.041Z,99093.73
2023-03-25T16:53:16.293Z,99092.74
2023-03-25T16:55:50.361Z,99090.44
2023-03-25T16:58:21.003Z,99088.23
2023-03-25T17:00:49.961Z,99084.82
2023-03-25T17:03:38.641Z,99083.26
2023-03-25T17:06:28.016Z,99081.79
2023-03-25T17:08:56.572Z,99081.11
2023-03-25T17:11:26.101Z,99080.13
2023-03-25T17:14:04.458Z,99084.59
2023-03-25T17:16:31.891Z,99086.64
2023-03-25T17:18:59.230Z,99081.59
2023-03-25T17:21:32.086Z,99087.52
2023-03-25T17:24:00.598Z,99087.27
2023-03-25T17:26:37.307Z,99083.73
2023-03-25T17:29:06.187Z,99090.81
2023-03-25T17:31:35.745Z,99089.41
2023-03-25T17:34:07.631Z,99088.44
2023-03-25T17:36:35.994Z,99092.27
2023-03-25T17:39:03.998Z,99087.70
2023-03-25T17:41:38.170Z,99091.80
2023-03-25T17:44:06.057Z,99086.45
2023-03-25T17:46:34.099Z,99092.98
2023-03-25T17:49:11.308Z,99094.55
2023-03-25T17:51:39.182Z,99089.98
2023-03-25T17:54:09.336Z,99095.11
2023-03-25T17:56:38.048Z,99096.35
2023-03-25T17:59:11.388Z,99098.29
2023-03-25T18:01:41.585Z,99100.06
2023-03-25T18:04:11.745Z,99102.09
2023-03-25T18:06:45.757Z,99102.55
2023-03-25T18:09:21.435Z,99098.45
2023-03-25T18:11:53.097Z,99101.41
2023-03-25T18:14:20.611Z,99103.56
2023-03-25T18:16:48.281Z,99098.37
2023-03-25T18:19:16.971Z,99098.49
2023-03-25T18:21:43.474Z,99090.79
2023-03-25T18:24:12.407Z,99091.94
2023-03-25T18:26:42.013Z,99092.23
2023-03-25T18:29:21.717Z,99083.34
2023-03-25T18:31:48.882Z,99082.00
2023-03-25T18:34:16.159Z,99075.39
2023-03-25T18:36:43.458Z,99077.34
2023-03-25T18:39:14.612Z,99078.90
2023-03-25T18:41:41.619Z,99076.36
2023-03-25T18:44:08.826Z,99078.34
2023-03-25T18:46:37.144Z,99069.88
2023-03-25T18:49:05.027Z,99068.30
2023-03-25T18:51:32.150Z,99068.30
2023-03-25T18:54:00.396Z,99068.56
2023-03-25T18:56:27.612Z,99074.68
2023-03-25T18:58:56.272Z,99072.55
2023-03-25T19:01:25.051Z,99072.42
2023-03-25T19:03:52.398Z,99073.85
2023-03-25T19:06:21.002Z,99061.90
2023-03-25T19:08:49.336Z,99072.48
2023-03-25T19:11:21.775Z,99068.48
2023-03-25T19:13:53.325Z,99066.39
2023-03-25T19:16:23.524Z,99069.88
2023-03-25T19:18:50.105Z,99061.25
2023-03-25T19:21:19.266Z,99064.77
2023-03-25T19:23:46.676Z,99061.75
2023-03-25T19:26:14.162Z,99058.89
2023-03-25T19:28:47.575Z,99054.08
2023-03-25T19:31:17.913Z,99062.16
2023-03-25T19:33:44.832Z,99058.84
2023-03-25T19:36:14.431Z,99062.56
2023-03-25T19:38:40.969Z,99060.90
2023-03-25T19:41:14.867Z,99067.73
2023-03-25T19:43:44.197Z,99057.81
2023-03-25T19:46:11.288Z,99066.64
2023-03-25T19:48:40.522Z,99054.27
2023-03-25T19:51:07.851Z,99061.75
2023-03-25T19:53:43.328Z,99052.57
2023-03-25T19:56:13.349Z,99049.29
2023-03-25T19:58:40.714Z,99043.81
2023-03-25T20:01:08.249Z,99049.61
2023-03-25T20:03:38.042Z,99047.36
2023-03-25T20:06:06.060Z,99036.68
2023-03-25T20:08:34.926Z,99046.17
2023-03-25T20:11:08.763Z,99046.19
2023-03-25T20:13:36.757Z,99047.47
2023-03-25T20:16:04.477Z,99040.41
2023-03-25T20:18:30.857Z,99038.13
2023-03-25T20:21:06.555Z,99039.04
2023-03-25T20:23:35.456Z,99038.42
2023-03-25T20:26:02.961Z,99034.11
2023-03-25T20:28:31.626Z,99042.04
2023-03-25T20:30:58.504Z,99041.36
2023-03-25T20:33:26.844Z,99039.10
2023-03-25T20:35:53.743Z,99035.48
2023-03-25T20:38:21.302Z,99036.33
2023-03-25T20:40:48.444Z,99031.44
2023-03-25T20:43:15.697Z,99023.90
2023-03-25T20:45:43.177Z,99028.83
2023-03-25T20:48:12.692Z,99026.84
2023-03-25T20:50:40.661Z,99023.85
2023-03-25T20:53:09.163Z,99020.23
2023-03-25T20:55:38.828Z,99019.95
2023-03-25T20:58:08.949Z,99021.84
2023-03-25T21:00:36.784Z,99028.88
2023-03-25T21:03:05.280Z,99020.36
2023-03-25T21:05:34.191Z,99020.02
2023-03-25T21:08:00.534Z,99015.90
2023-03-25T21:10:27.196Z,99019.58
2023-03-25T21:13:03.416Z,99019.42
2023-03-25T21:15:30.899Z,99021.84
2023-03-25T21:17:57.296Z,99022.34
2023-03-25T21:20:28.317Z,99019.53
2023-03-25T21:22:59.359Z,99021.70
2023-03-25T21:33:25.783Z,99024.29
2023-03-25T21:35:53.408Z,99022.82
2023-03-25T21:38:28.603Z,99017.68
2023-03-25T21:41:00.870Z,99017.80
2023-03-25T21:43:29.862Z,99019.66
2023-03-25T21:45:57.190Z,99008.17
2023-03-25T21:48:32.557Z,99010.24
2023-03-25T21:51:01.331Z,99011.00
2023-03-25T21:53:32.519Z,99011.73
2023-03-25T21:56:03.814Z,99016.04
2023-03-25T21:58:39.267Z,99006.41
2023-03-25T22:01:13.300Z,99004.87
2023-03-25T22:03:44.932Z,99005.48
2023-03-25T22:06:14.119Z,99004.16
2023-03-25T22:08:41.766Z,99002.63
2023-03-25T22:11:08.997Z,98999.89
2023-03-25T22:13:36.333Z,98996.65
2023-03-25T22:16:13.934Z,98995.10
2023-03-25T22:18:41.953Z,98994.05
2023-03-25T22:21:10.201Z,98994.74
2023-03-25T22:23:38.465Z,98987.85
2023-03-25T22:26:07.614Z,98985.48
2023-03-25T22:28:35.694Z,98984.31
2023-03-25T22:31:17.297Z,98990.30
2023-03-25T22:33:44.502Z,98992.57
2023-03-25T22:36:15.011Z,98991.97
2023-03-25T22:38:45.894Z,98990.07
2023-03-25T22:41:14.476Z,98982.35
2023-03-25T22:43:43.437Z,98982.23
2023-03-25T22:46:10.212Z,98982.61
2023-03-25T22:48:39.422Z,98978.90
2023-03-25T22:51:07.464Z,98979.64
2023-03-25T22:53:35.780Z,98980.33
2023-03-25T22:56:03.866Z,98979.95
2023-03-25T22:58:30.484Z,98985.57
2023-03-25T23:00:59.814Z,98981.86
2023-03-25T23:03:27.704Z,98984.72
2023-03-25T23:06:00.560Z,98979.95
2023-03-25T23:08:34.537Z,98978.20
2023-03-25T23:11:07.032Z,98972.06
2023-03-25T23:13:34.533Z,98973.81
2023-03-25T23:16:03.892Z,98967.14
2023-03-25T23:18:30.677Z,98969.64
2023-03-25T23:20:59.563Z,98968.08
2023-03-25T23:23:26.453Z,98959.73
2023-03-25T23:26:04.440Z,98963.01
2023-03-25T23:28:35.668Z,98958.84
2023-03-25T23:31:09.239Z,98961.04
2023-03-25T23:33:36.433Z,98958.91
2023-03-25T23:36:05.213Z,98951.51
2023-03-25T23:38:33.065Z,98947.86
2023-03-25T23:41:21.473Z,98947.48
2023-03-25T23:43:49.160Z,98949.22
2023-03-25T23:46:17.784Z,98941.98
2023-03-25T23:48:46.861Z,98942.30
2023-03-25T23:51:17.821Z,98941.71
2023-03-25T23:53:46.601Z,98940.96
2023-03-25T23:56:16.485Z,98935.52
2023-03-25T23:58:43.701Z,98930.86
